Time;durP1;ratioP1;P1;durP2;ratioP2;P2;SDS_P1;SDS_P2;PMS_P1;PMS_P2;Temp;Humidity;BMP_temperature;BMP_pressure;BME280_temperature;BME280_humidity;BME280_pressure;Samples;Min_cycle;Max_cycle;Signal;HPM_P1;HPM_P2
2023/05/21 00:00:52;;;;;;;6.38;5.43;;;21.30;54.00;;;;;;5061387;28;45496;-69
2023/05/21 00:03:19;;;;;;;6.20;5.45;;;21.30;54.00;;;;;;5065878;28;45326;-69
2023/05/21 00:05:48;;;;;;;6.00;5.40;;;21.30;54.10;;;;;;5066209;28;46679;-69
2023/05/21 00:08:15;;;;;;;5.90;5.30;;;21.20;53.90;;;;;;5065651;28;45195;-70
2023/05/21 00:10:42;;;;;;;5.82;5.25;;;21.20;54.00;;;;;;5064486;28;45427;-69
2023/05/21 00:13:10;;;;;;;5.97;5.47;;;21.20;53.90;;;;;;5066115;28;45416;-70
2023/05/21 00:15:38;;;;;;;6.15;5.53;;;21.20;53.90;;;;;;5065818;28;45324;-70
2023/05/21 00:18:04;;;;;;;6.50;5.70;;;21.20;53.90;;;;;;5068715;28;45612;-69
2023/05/21 00:20:32;;;;;;;6.00;5.40;;;21.20;54.00;;;;;;5066260;28;45439;-69
2023/05/21 00:22:58;;;;;;;6.70;5.30;;;21.20;54.00;;;;;;5066369;28;45375;-69
2023/05/21 00:25:25;;;;;;;6.78;5.57;;;21.10;54.00;;;;;;5065963;28;47484;-69
2023/05/21 00:27:52;;;;;;;8.02;5.60;;;21.10;54.10;;;;;;5064578;28;45353;-69
2023/05/21 00:30:20;;;;;;;5.88;5.25;;;21.10;54.00;;;;;;5065727;28;45245;-70
2023/05/21 00:32:47;;;;;;;6.53;5.93;;;21.10;54.00;;;;;;5066284;28;45387;-71
2023/05/21 00:35:14;;;;;;;6.47;5.38;;;21.10;54.00;;;;;;5065796;28;45523;-70
2023/05/21 00:37:41;;;;;;;5.85;5.35;;;21.10;54.60;;;;;;5056085;28;45317;-70
2023/05/21 00:40:08;;;;;;;6.38;5.60;;;21.10;53.90;;;;;;5048161;28;45339;-70
2023/05/21 00:42:38;;;;;;;6.55;5.82;;;21.10;53.90;;;;;;5086133;28;45236;-71
2023/05/21 00:45:06;;;;;;;6.70;5.55;;;21.10;53.90;;;;;;5086070;27;47542;-70
2023/05/21 00:47:34;;;;;;;6.55;5.95;;;21.00;54.10;;;;;;5086191;27;45315;-70
2023/05/21 00:50:01;;;;;;;5.65;5.15;;;21.00;54.20;;;;;;5086393;27;45348;-70
2023/05/21 00:52:28;;;;;;;6.28;5.68;;;21.00;54.20;;;;;;5086414;27;45372;-70
2023/05/21 00:54:55;;;;;;;5.65;5.15;;;21.00;54.20;;;;;;5086050;27;45435;-70
2023/05/21 00:57:25;;;;;;;6.55;5.90;;;20.90;54.20;;;;;;5086063;27;45255;-70
2023/05/21 00:59:52;;;;;;;5.78;5.05;;;21.00;54.20;;;;;;5086183;27;45385;-70
2023/05/21 01:02:22;;;;;;;6.45;5.40;;;20.90;54.20;;;;;;5085921;27;45402;-70
2023/05/21 01:04:50;;;;;;;5.38;4.88;;;20.90;54.20;;;;;;5085749;27;46989;-70
2023/05/21 01:07:17;;;;;;;6.53;5.82;;;20.90;54.20;;;;;;5085887;27;45395;-70
2023/05/21 01:09:44;;;;;;;5.93;5.30;;;20.90;54.30;;;;;;5086057;27;45336;-70
2023/05/21 01:12:11;;;;;;;6.03;5.43;;;20.80;54.30;;;;;;5086150;27;45581;-70
2023/05/21 01:14:38;;;;;;;6.00;5.40;;;20.80;54.30;;;;;;5085656;27;45641;-70
2023/05/21 01:17:05;;;;;;;6.10;5.50;;;20.80;54.30;;;;;;5085749;27;45261;-70
2023/05/21 01:19:32;;;;;;;5.70;5.15;;;20.80;54.30;;;;;;5085998;27;45308;-70
2023/05/21 01:22:04;;;;;;;6.18;5.57;;;20.80;54.40;;;;;;5085347;28;45453;-70
2023/05/21 01:24:32;;;;;;;6.07;5.45;;;20.70;54.40;;;;;;5085583;27;46660;-70
2023/05/21 01:26:59;;;;;;;6.20;5.40;;;20.70;54.40;;;;;;5085628;27;45370;-70
2023/05/21 01:29:26;;;;;;;7.00;6.30;;;20.70;54.40;;;;;;5085833;27;45410;-70
2023/05/21 01:31:59;;;;;;;6.13;5.25;;;20.70;54.40;;;;;;5085986;27;45345;-69
2023/05/21 01:34:29;;;;;;;5.57;5.05;;;20.70;54.40;;;;;;5085445;27;45393;-69
2023/05/21 01:37:00;;;;;;;5.90;5.40;;;20.70;54.40;;;;;;5085464;27;45323;-69
2023/05/21 01:39:28;;;;;;;5.75;5.13;;;20.60;54.40;;;;;;5085753;27;45314;-69
2023/05/21 01:41:56;;;;;;;6.72;5.65;;;20.60;54.40;;;;;;5068618;27;45310;-70
2023/05/21 01:44:24;;;;;;;5.90;5.03;;;20.60;54.40;;;;;;5064976;28;46397;-70
2023/05/21 01:46:50;;;;;;;6.53;5.88;;;20.60;54.40;;;;;;5064975;28;45344;-69
2023/05/21 01:49:17;;;;;;;5.63;5.13;;;20.60;55.00;;;;;;5065242;28;45254;-70
2023/05/21 01:51:44;;;;;;;5.75;5.15;;;20.50;54.30;;;;;;5065242;28;45399;-69
2023/05/21 01:54:11;;;;;;;5.78;5.13;;;20.50;54.40;;;;;;5064883;28;46384;-70
2023/05/21 01:56:38;;;;;;;6.22;5.40;;;20.50;54.30;;;;;;5064866;28;45300;-70
2023/05/21 01:59:06;;;;;;;5.90;5.07;;;20.50;54.40;;;;;;5065060;28;45371;-70
2023/05/21 02:01:33;;;;;;;5.32;4.82;;;20.50;54.40;;;;;;5064985;28;45495;-70
2023/05/21 02:04:00;;;;;;;5.53;4.88;;;20.40;54.40;;;;;;5065030;28;46223;-70
2023/05/21 02:06:27;;;;;;;5.75;5.15;;;20.40;54.30;;;;;;5064703;28;45360;-70
2023/05/21 02:08:54;;;;;;;6.00;4.82;;;20.40;54.40;;;;;;5065025;28;45325;-69
2023/05/21 02:11:21;;;;;;;5.90;5.30;;;20.40;54.40;;;;;;5065110;28;45363;-70
2023/05/21 02:13:48;;;;;;;5.90;5.25;;;20.40;54.40;;;;;;5064625;28;45333;-70
2023/05/21 02:16:16;;;;;;;6.32;5.25;;;20.40;54.40;;;;;;5064629;28;45300;-70
2023/05/21 02:18:43;;;;;;;7.35;5.50;;;20.30;54.40;;;;;;5064824;28;45281;-70
2023/05/21 02:21:10;;;;;;;5.80;5.20;;;20.30;54.40;;;;;;5065007;28;45360;-70
2023/05/21 02:23:37;;;;;;;5.47;4.97;;;20.30;54.40;;;;;;5064429;28;45463;-69
2023/05/21 02:26:04;;;;;;;6.07;5.13;;;20.30;54.30;;;;;;5064547;28;45313;-70
2023/05/21 02:28:31;;;;;;;5.55;5.05;;;20.30;54.40;;;;;;5064822;28;45315;-69
2023/05/21 02:30:58;;;;;;;5.68;5.10;;;20.20;54.30;;;;;;5065096;28;45423;-70
2023/05/21 02:33:26;;;;;;;5.80;5.22;;;20.20;54.30;;;;;;5065846;28;46382;-70
2023/05/21 02:35:53;;;;;;;5.63;5.13;;;20.20;54.30;;;;;;5067844;28;45315;-70
2023/05/21 02:38:21;;;;;;;5.72;5.15;;;20.20;54.30;;;;;;5068138;28;45402;-70
2023/05/21 02:40:48;;;;;;;5.78;5.18;;;20.20;54.90;;;;;;5068021;28;45430;-70
2023/05/21 02:43:15;;;;;;;5.82;5.22;;;20.20;54.40;;;;;;5067694;28;46401;-70
2023/05/21 02:45:42;;;;;;;5.50;5.00;;;20.10;54.30;;;;;;5067791;28;45347;-69
2023/05/21 02:48:10;;;;;;;5.80;5.28;;;20.10;54.30;;;;;;5067800;28;45295;-70
2023/05/21 02:50:38;;;;;;;7.05;5.35;;;20.10;54.40;;;;;;5067972;28;45327;-70
2023/05/21 02:53:05;;;;;;;5.93;5.32;;;20.10;54.40;;;;;;5067687;28;45478;-70
2023/05/21 02:55:31;;;;;;;6.00;5.40;;;20.10;54.30;;;;;;5067573;28;45424;-70
2023/05/21 02:57:58;;;;;;;5.47;4.97;;;20.10;54.40;;;;;;5067771;28;45480;-70
2023/05/21 03:00:25;;;;;;;5.57;5.07;;;20.10;54.50;;;;;;5067914;28;45420;-70
2023/05/21 03:02:52;;;;;;;5.95;5.35;;;20.00;54.50;;;;;;5067005;28;46775;-69
2023/05/21 03:05:18;;;;;;;6.40;5.25;;;20.00;54.50;;;;;;5067376;28;45351;-69
2023/05/21 03:07:47;;;;;;;5.53;5.03;;;20.00;54.60;;;;;;5067574;28;45302;-69
2023/05/21 03:10:13;;;;;;;5.20;4.70;;;20.00;54.50;;;;;;5067721;28;45308;-70
2023/05/21 03:12:40;;;;;;;7.97;5.38;;;20.00;55.10;;;;;;5067195;28;45514;-70
2023/05/21 03:15:08;;;;;;;5.45;4.88;;;20.00;55.10;;;;;;5067358;28;45432;-70
2023/05/21 03:17:35;;;;;;;5.50;5.00;;;20.00;54.60;;;;;;5067364;28;45296;-69
2023/05/21 03:20:03;;;;;;;5.28;4.72;;;19.90;54.50;;;;;;5067548;28;45307;-70
2023/05/21 03:22:30;;;;;;;5.72;5.18;;;19.90;54.60;;;;;;5066999;28;47542;-70
2023/05/21 03:24:59;;;;;;;5.70;5.20;;;19.90;54.60;;;;;;5067148;28;45416;-70
2023/05/21 03:27:25;;;;;;;5.72;5.22;;;19.90;54.70;;;;;;5067309;28;45344;-69
2023/05/21 03:29:53;;;;;;;5.50;5.00;;;19.90;54.60;;;;;;5067498;28;45301;-70
2023/05/21 03:32:20;;;;;;;6.00;5.40;;;19.90;54.70;;;;;;5066980;28;45451;-70
2023/05/21 03:34:47;;;;;;;5.38;4.88;;;19.80;54.70;;;;;;5066888;28;45352;-70
2023/05/21 03:37:14;;;;;;;5.65;5.03;;;19.80;54.70;;;;;;5067142;28;45218;-70
2023/05/21 03:39:41;;;;;;;5.43;4.93;;;19.80;54.70;;;;;;5067200;28;45427;-70
2023/05/21 03:42:09;;;;;;;5.57;4.80;;;19.80;54.80;;;;;;5066607;28;45256;-70
2023/05/21 03:44:36;;;;;;;5.90;5.32;;;19.80;54.80;;;;;;5066456;28;45277;-69
2023/05/21 03:47:02;;;;;;;6.03;5.20;;;19.80;54.80;;;;;;5067020;28;45332;-70
2023/05/21 03:49:29;;;;;;;6.10;5.50;;;19.80;54.80;;;;;;5066989;28;45461;-69
2023/05/21 03:51:56;;;;;;;6.97;5.30;;;19.70;54.70;;;;;;5066690;28;45318;-70
2023/05/21 03:54:23;;;;;;;7.40;5.40;;;19.70;54.70;;;;;;5066748;28;45193;-69
2023/05/21 03:56:49;;;;;;;6.45;5.53;;;19.70;54.80;;;;;;5066821;28;45281;-69
2023/05/21 03:59:18;;;;;;;7.07;5.53;;;19.70;54.80;;;;;;5064324;28;45345;-69
2023/05/21 04:01:45;;;;;;;5.70;5.15;;;19.70;54.80;;;;;;5066274;28;46413;-70
2023/05/21 04:04:11;;;;;;;5.32;4.80;;;19.70;54.80;;;;;;5066411;28;45327;-69
2023/05/21 04:06:41;;;;;;;6.20;5.63;;;19.70;54.80;;;;;;5066583;28;45334;-69
2023/05/21 04:09:07;;;;;;;5.95;5.38;;;19.70;54.80;;;;;;5067038;28;45242;-70
2023/05/21 04:11:34;;;;;;;5.93;5.32;;;19.70;54.80;;;;;;5066380;28;45336;-70
2023/05/21 04:14:01;;;;;;;5.47;4.75;;;19.60;54.80;;;;;;5066490;28;45356;-70
2023/05/21 04:16:29;;;;;;;6.55;5.55;;;19.60;54.80;;;;;;5066401;28;45307;-69
2023/05/21 04:18:56;;;;;;;6.80;5.32;;;19.60;54.80;;;;;;5066649;28;45412;-70
2023/05/21 04:21:23;;;;;;;5.72;5.13;;;19.60;54.80;;;;;;5066232;28;45416;-70
2023/05/21 04:23:52;;;;;;;5.47;4.97;;;19.60;54.70;;;;;;5066104;28;45559;-70
2023/05/21 04:26:19;;;;;;;5.78;5.28;;;19.60;54.90;;;;;;5066296;28;45335;-70
2023/05/21 04:28:46;;;;;;;5.60;5.00;;;19.60;54.80;;;;;;5066656;28;45222;-70
2023/05/21 04:31:13;;;;;;;7.50;5.50;;;19.60;54.90;;;;;;5066160;28;45561;-70
2023/05/21 04:33:44;;;;;;;6.32;5.53;;;19.60;55.00;;;;;;5066134;28;45378;-69
2023/05/21 04:36:11;;;;;;;6.93;5.03;;;19.50;54.90;;;;;;5066069;28;45330;-69
2023/05/21 04:38:40;;;;;;;5.38;4.88;;;19.50;54.90;;;;;;5066330;28;45315;-69
2023/05/21 04:41:09;;;;;;;5.80;5.25;;;19.50;54.90;;;;;;5065821;28;47504;-70
2023/05/21 04:43:37;;;;;;;5.53;5.00;;;19.50;54.90;;;;;;5065750;28;45333;-70
2023/05/21 04:46:04;;;;;;;5.55;5.05;;;19.50;54.90;;;;;;5065925;28;45395;-70
2023/05/21 04:48:31;;;;;;;6.13;5.53;;;19.50;54.90;;;;;;5066261;28;45350;-70
2023/05/21 04:50:59;;;;;;;5.75;5.25;;;19.50;54.80;;;;;;5065736;28;46426;-70
2023/05/21 04:53:26;;;;;;;5.72;5.20;;;19.50;54.80;;;;;;5065736;28;45299;-70
2023/05/21 04:55:53;;;;;;;5.45;4.95;;;19.50;54.80;;;;;;5064930;28;45391;-70
2023/05/21 04:58:20;;;;;;;5.85;5.22;;;19.50;54.80;;;;;;5066105;28;45463;-70
2023/05/21 05:00:49;;;;;;;5.88;5.28;;;19.50;54.70;;;;;;5065418;28;46409;-70
2023/05/21 05:03:16;;;;;;;6.35;5.70;;;19.50;54.70;;;;;;5065616;28;45315;-70
2023/05/21 05:05:43;;;;;;;5.72;5.13;;;19.50;54.70;;;;;;5065718;28;45261;-70
2023/05/21 05:08:11;;;;;;;5.90;5.18;;;19.40;54.60;;;;;;5065868;28;45408;-70
2023/05/21 05:10:38;;;;;;;5.90;5.30;;;19.40;54.60;;;;;;5065539;28;45553;-70
2023/05/21 05:13:05;;;;;;;5.43;4.93;;;19.40;54.60;;;;;;5065527;28;45268;-69
2023/05/21 05:15:31;;;;;;;5.45;4.95;;;19.40;54.60;;;;;;5065646;28;45279;-69
2023/05/21 05:17:58;;;;;;;6.25;4.72;;;19.40;54.60;;;;;;5065705;28;45420;-69
2023/05/21 05:20:25;;;;;;;5.68;5.18;;;19.40;54.60;;;;;;5065479;28;45345;-70
2023/05/21 05:22:52;;;;;;;5.53;4.97;;;19.40;54.60;;;;;;5065240;28;45384;-70
2023/05/21 05:25:20;;;;;;;5.75;4.72;;;19.40;54.60;;;;;;5065460;28;45285;-70
2023/05/21 05:27:47;;;;;;;5.93;5.32;;;19.40;54.60;;;;;;5065660;28;45324;-70
2023/05/21 05:30:14;;;;;;;6.25;5.35;;;19.40;54.60;;;;;;5065254;28;46279;-70
2023/05/21 05:32:41;;;;;;;6.03;5.43;;;19.40;54.70;;;;;;5065218;28;45312;-70
2023/05/21 05:35:09;;;;;;;6.57;5.45;;;19.40;54.70;;;;;;5065297;28;45426;-70
2023/05/21 05:37:36;;;;;;;5.82;5.22;;;19.40;54.60;;;;;;5065602;28;45287;-70
2023/05/21 05:40:04;;;;;;;5.68;4.97;;;19.40;54.60;;;;;;5064944;28;45439;-70
2023/05/21 05:42:32;;;;;;;6.13;5.53;;;19.40;54.60;;;;;;5065196;28;45427;-70
2023/05/21 05:44:58;;;;;;;6.35;4.97;;;19.40;54.60;;;;;;5065203;28;45357;-70
2023/05/21 05:47:25;;;;;;;6.63;4.90;;;19.40;54.60;;;;;;5065475;28;45336;-70
2023/05/21 05:49:52;;;;;;;5.82;5.30;;;19.40;54.50;;;;;;5064872;28;45531;-70
2023/05/21 05:52:19;;;;;;;5.97;5.38;;;19.40;54.40;;;;;;5064972;28;45486;-70
2023/05/21 05:54:46;;;;;;;5.43;4.85;;;19.40;54.40;;;;;;5065132;28;45393;-70
2023/05/21 05:57:13;;;;;;;5.55;5.05;;;19.40;54.40;;;;;;5065162;28;45475;-71
2023/05/21 05:59:41;;;;;;;5.70;5.20;;;19.40;54.30;;;;;;5064798;28;45361;-70
2023/05/21 06:02:07;;;;;;;4.90;4.40;;;19.50;54.30;;;;;;5064544;28;45281;-70
2023/05/21 06:04:34;;;;;;;6.40;5.35;;;19.40;54.20;;;;;;5064900;28;45386;-70
2023/05/21 06:07:01;;;;;;;5.30;4.80;;;19.50;54.30;;;;;;5065968;28;45363;-69
2023/05/21 06:09:28;;;;;;;5.45;4.78;;;19.50;54.20;;;;;;5068211;28;45305;-70
2023/05/21 06:11:54;;;;;;;5.60;5.10;;;19.50;54.70;;;;;;5068333;28;45268;-70
2023/05/21 06:14:21;;;;;;;5.22;4.72;;;19.50;54.10;;;;;;5068538;28;45241;-69
2023/05/21 06:16:49;;;;;;;5.63;5.00;;;19.50;54.10;;;;;;5068478;28;45256;-70
2023/05/21 06:19:16;;;;;;;6.00;5.30;;;19.50;54.10;;;;;;5068046;28;46877;-70
2023/05/21 06:21:43;;;;;;;5.38;4.88;;;19.50;54.10;;;;;;5068128;28;45310;-70
2023/05/21 06:24:10;;;;;;;6.13;5.40;;;19.50;54.00;;;;;;5068140;28;45272;-70
2023/05/21 06:26:36;;;;;;;6.00;5.40;;;19.50;54.00;;;;;;5068425;28;45348;-70
2023/05/21 06:29:03;;;;;;;6.20;5.60;;;19.60;54.10;;;;;;5067907;28;45394;-70
2023/05/21 06:31:31;;;;;;;6.80;5.70;;;19.60;54.10;;;;;;5068240;28;45327;-70
2023/05/21 06:33:59;;;;;;;6.38;5.70;;;19.60;54.00;;;;;;5068127;28;45324;-70
2023/05/21 06:36:28;;;;;;;5.57;4.97;;;19.60;54.00;;;;;;5068175;28;45320;-71
2023/05/21 06:38:55;;;;;;;6.43;5.50;;;19.60;53.90;;;;;;5067878;28;46286;-70
2023/05/21 06:41:22;;;;;;;5.90;5.30;;;19.60;53.90;;;;;;5067754;28;45335;-70
2023/05/21 06:43:49;;;;;;;5.97;5.38;;;19.70;53.90;;;;;;5067970;28;45272;-70
2023/05/21 06:46:16;;;;;;;5.68;5.13;;;19.70;53.90;;;;;;5067974;28;45527;-70
2023/05/21 06:48:43;;;;;;;5.65;5.13;;;19.70;53.80;;;;;;5067617;28;46381;-70
2023/05/21 06:51:11;;;;;;;8.15;5.60;;;19.70;53.80;;;;;;5067636;28;45394;-70
2023/05/21 06:53:38;;;;;;;5.53;4.97;;;19.70;53.80;;;;;;5067843;28;45366;-70
2023/05/21 06:56:05;;;;;;;5.70;5.20;;;19.80;53.80;;;;;;5067825;28;45405;-70
2023/05/21 06:58:32;;;;;;;5.80;5.03;;;19.80;53.80;;;;;;5067543;28;46727;-70
2023/05/21 07:00:59;;;;;;;6.35;5.40;;;19.80;53.70;;;;;;5067317;28;45379;-69
2023/05/21 07:03:26;;;;;;;5.97;5.38;;;19.80;53.70;;;;;;5067486;28;45362;-70
2023/05/21 07:05:53;;;;;;;5.43;4.93;;;19.80;53.70;;;;;;5067547;28;45410;-70
2023/05/21 07:08:21;;;;;;;5.63;5.03;;;19.90;53.70;;;;;;5067340;28;45333;-70
2023/05/21 07:10:49;;;;;;;5.68;5.10;;;19.90;53.70;;;;;;5067430;28;45262;-70
2023/05/21 07:13:15;;;;;;;7.15;5.80;;;19.90;53.70;;;;;;5067493;28;45447;-70
2023/05/21 07:15:42;;;;;;;5.90;5.40;;;19.90;53.80;;;;;;5067471;28;45490;-70
2023/05/21 07:18:10;;;;;;;6.20;5.20;;;19.90;53.80;;;;;;5066969;28;45260;-70
2023/05/21 07:20:37;;;;;;;6.15;5.55;;;20.00;53.80;;;;;;5066905;28;45305;-70
2023/05/21 07:23:04;;;;;;;6.22;5.50;;;20.00;53.90;;;;;;5067351;28;45346;-70
2023/05/21 07:25:32;;;;;;;6.03;5.43;;;20.00;54.00;;;;;;5067368;28;45363;-70
2023/05/21 07:27:58;;;;;;;5.90;5.30;;;20.00;54.00;;;;;;5067134;28;46559;-70
2023/05/21 07:30:25;;;;;;;5.38;4.88;;;20.10;54.00;;;;;;5067158;28;45254;-70
2023/05/21 07:32:52;;;;;;;5.50;4.88;;;20.10;53.90;;;;;;5067312;28;45319;-70
2023/05/21 07:35:19;;;;;;;5.65;5.07;;;20.10;54.60;;;;;;5067287;28;45375;-69
2023/05/21 07:37:46;;;;;;;5.78;5.18;;;20.10;54.00;;;;;;5066942;28;46723;-70
2023/05/21 07:40:14;;;;;;;6.30;5.65;;;20.10;54.00;;;;;;5066877;28;45429;-70
2023/05/21 07:42:42;;;;;;;6.07;5.32;;;20.10;54.00;;;;;;5066969;28;45383;-70
2023/05/21 07:45:09;;;;;;;6.35;5.22;;;20.20;54.00;;;;;;5067062;28;45464;-70
2023/05/21 07:47:36;;;;;;;5.15;4.65;;;20.20;54.00;;;;;;5066839;28;46400;-70
2023/05/21 07:50:03;;;;;;;5.63;5.07;;;20.20;53.90;;;;;;5066767;28;45380;-70
2023/05/21 07:52:29;;;;;;;5.93;5.05;;;20.20;53.90;;;;;;5066751;28;45289;-70
2023/05/21 07:54:56;;;;;;;5.85;5.35;;;20.20;53.90;;;;;;5066886;28;45409;-70
2023/05/21 07:57:23;;;;;;;5.85;5.30;;;20.20;54.00;;;;;;5066506;28;46370;-70
2023/05/21 07:59:51;;;;;;;5.28;4.78;;;20.30;54.00;;;;;;5066970;28;45419;-70
2023/05/21 08:02:18;;;;;;;5.38;4.88;;;20.30;53.90;;;;;;5066590;28;45523;-70
2023/05/21 08:04:45;;;;;;;6.10;5.50;;;20.30;53.90;;;;;;5066643;28;45337;-70
2023/05/21 08:07:12;;;;;;;5.22;4.72;;;20.30;53.80;;;;;;5066299;28;46402;-70
2023/05/21 08:09:39;;;;;;;6.28;5.40;;;20.30;53.60;;;;;;5066568;28;45336;-70
2023/05/21 08:12:07;;;;;;;6.63;5.55;;;20.30;53.50;;;;;;5066568;28;45314;-70
2023/05/21 08:14:33;;;;;;;5.88;5.38;;;20.40;53.60;;;;;;5066664;28;45379;-70
2023/05/21 08:17:02;;;;;;;5.63;5.13;;;20.40;53.70;;;;;;5066201;28;45310;-70
2023/05/21 08:19:28;;;;;;;5.80;5.10;;;20.40;53.70;;;;;;5066345;28;45264;-70
2023/05/21 08:21:55;;;;;;;6.03;5.32;;;20.50;53.90;;;;;;5063844;28;45341;-70
2023/05/21 08:24:22;;;;;;;6.65;5.95;;;20.50;53.90;;;;;;5066398;28;45443;-70
2023/05/21 08:26:49;;;;;;;6.07;5.47;;;20.50;53.90;;;;;;5066069;28;47333;-70
2023/05/21 08:29:16;;;;;;;5.97;5.32;;;20.50;53.90;;;;;;5066180;28;45297;-69
2023/05/21 08:31:43;;;;;;;6.03;5.32;;;20.50;53.90;;;;;;5065180;28;45376;-70
2023/05/21 08:34:11;;;;;;;6.35;5.75;;;20.60;54.00;;;;;;5066486;28;45447;-70
2023/05/21 08:36:41;;;;;;;5.47;4.97;;;20.60;53.90;;;;;;5065948;28;45316;-70
2023/05/21 08:39:08;;;;;;;5.75;4.88;;;20.60;54.00;;;;;;5065996;28;45342;-70
2023/05/21 08:41:35;;;;;;;6.30;5.70;;;20.70;54.00;;;;;;5066152;28;45354;-70
2023/05/21 08:44:02;;;;;;;5.78;5.28;;;20.70;54.00;;;;;;5066210;28;45426;-70
2023/05/21 08:46:31;;;;;;;6.38;5.65;;;20.70;54.00;;;;;;5065743;28;45467;-70
2023/05/21 08:48:59;;;;;;;5.95;5.45;;;20.70;54.00;;;;;;5065909;28;45264;-70
2023/05/21 08:51:27;;;;;;;5.78;5.22;;;20.70;54.00;;;;;;5065997;28;45396;-70
2023/05/21 08:53:54;;;;;;;6.53;5.43;;;20.80;54.10;;;;;;5066091;28;45420;-70
2023/05/21 08:56:21;;;;;;;6.05;5.45;;;20.80;54.10;;;;;;5065842;28;45276;-70
2023/05/21 08:58:48;;;;;;;6.75;5.55;;;20.80;54.10;;;;;;5065865;28;45331;-70
2023/05/21 09:01:17;;;;;;;5.80;5.30;;;20.90;54.10;;;;;;5065669;28;45284;-70
2023/05/21 09:03:44;;;;;;;6.13;5.53;;;20.90;54.10;;;;;;5065923;28;45256;-69
2023/05/21 09:06:12;;;;;;;6.35;5.72;;;20.90;54.00;;;;;;5065667;28;46347;-70
2023/05/21 09:08:43;;;;;;;6.22;5.63;;;20.90;54.00;;;;;;5057562;28;45537;-70
2023/05/21 09:11:10;;;;;;;6.82;5.85;;;20.90;54.00;;;;;;5065517;28;45493;-70
2023/05/21 09:13:37;;;;;;;5.78;5.20;;;21.00;54.00;;;;;;5061843;28;45542;-69
2023/05/21 09:16:04;;;;;;;6.40;5.80;;;21.00;54.00;;;;;;5053006;28;47978;-70
2023/05/21 09:18:31;;;;;;;7.35;5.72;;;21.10;54.30;;;;;;5048599;28;45462;-69
2023/05/21 09:20:59;;;;;;;10.82;5.65;;;21.10;54.30;;;;;;5066015;28;45570;-70
2023/05/21 09:23:25;;;;;;;8.95;6.32;;;21.10;55.00;;;;;;5065900;27;45499;-70
2023/05/21 09:25:53;;;;;;;8.77;6.45;;;21.20;54.40;;;;;;5055286;28;46429;-70
2023/05/21 09:28:20;;;;;;;9.10;5.60;;;21.20;54.40;;;;;;5065178;28;45431;-70
2023/05/21 09:30:47;;;;;;;8.43;5.53;;;21.20;54.40;;;;;;5063237;28;45479;-70
2023/05/21 09:33:24;;;;;;;7.20;5.68;;;21.30;54.40;;;;;;5065283;28;45496;-71
2023/05/21 09:35:51;;;;;;;6.65;5.90;;;21.30;54.40;;;;;;5064744;28;45235;-70
2023/05/21 09:38:17;;;;;;;6.40;5.80;;;21.30;54.40;;;;;;5067104;28;45443;-70
2023/05/21 09:40:46;;;;;;;7.47;5.68;;;21.30;54.40;;;;;;5065002;28;45379;-70
2023/05/21 09:43:15;;;;;;;9.02;6.25;;;21.30;54.30;;;;;;5067869;28;45371;-70
2023/05/21 09:45:50;;;;;;;6.32;5.72;;;21.40;54.40;;;;;;5068226;28;45421;-70
2023/05/21 09:48:17;;;;;;;8.85;5.60;;;21.40;54.30;;;;;;5068630;28;45342;-70
2023/05/21 09:50:44;;;;;;;7.05;6.35;;;21.40;54.20;;;;;;5068544;28;45420;-70
2023/05/21 09:53:12;;;;;;;7.97;6.10;;;21.50;54.30;;;;;;5068799;28;45376;-70
2023/05/21 09:55:40;;;;;;;6.47;5.80;;;21.50;54.30;;;;;;5068056;28;46738;-70
2023/05/21 09:58:07;;;;;;;6.13;5.50;;;21.50;54.10;;;;;;5068336;28;45401;-70
2023/05/21 10:00:35;;;;;;;7.55;5.57;;;21.60;54.10;;;;;;5068482;28;45196;-69
2023/05/21 10:03:02;;;;;;;7.32;5.88;;;21.60;54.00;;;;;;5068660;28;45384;-70
2023/05/21 10:05:29;;;;;;;6.65;5.82;;;21.60;54.00;;;;;;5067897;28;46568;-70
2023/05/21 10:07:59;;;;;;;6.88;5.70;;;21.70;54.00;;;;;;5068244;28;45343;-70
2023/05/21 10:10:25;;;;;;;6.30;5.72;;;21.70;54.00;;;;;;5068434;28;45390;-70
2023/05/21 10:12:55;;;;;;;6.93;5.90;;;21.70;54.00;;;;;;5068485;28;45444;-70
2023/05/21 10:15:23;;;;;;;7.45;5.97;;;21.80;54.10;;;;;;5068030;28;45395;-71
2023/05/21 10:17:51;;;;;;;8.65;5.88;;;21.80;54.00;;;;;;5068056;28;45260;-71
2023/05/21 10:20:18;;;;;;;6.40;5.60;;;21.90;54.00;;;;;;5068098;28;45336;-70
2023/05/21 10:22:45;;;;;;;6.88;5.72;;;21.90;53.90;;;;;;5068157;28;45308;-70
2023/05/21 10:25:13;;;;;;;6.13;5.53;;;21.90;53.90;;;;;;5067727;28;46703;-70
2023/05/21 10:27:39;;;;;;;5.93;5.35;;;22.00;53.90;;;;;;5067810;28;45312;-70
2023/05/21 10:30:07;;;;;;;7.80;6.07;;;22.00;53.80;;;;;;5068086;28;45400;-70
2023/05/21 10:32:34;;;;;;;7.60;5.90;;;22.00;53.80;;;;;;5068152;28;45300;-71
2023/05/21 10:35:02;;;;;;;6.50;5.80;;;22.00;53.90;;;;;;5067643;28;46401;-70
2023/05/21 10:37:29;;;;;;;6.68;5.97;;;22.10;53.80;;;;;;5067573;28;45280;-70
2023/05/21 10:39:56;;;;;;;7.75;5.97;;;22.10;53.80;;;;;;5067988;28;45301;-70
2023/05/21 10:42:26;;;;;;;6.47;5.78;;;22.20;53.90;;;;;;5068162;28;45407;-70
2023/05/21 10:45:02;;;;;;;6.80;6.10;;;22.30;53.90;;;;;;5065511;28;45360;-70
2023/05/21 10:47:44;;;;;;;9.05;5.93;;;22.30;53.90;;;;;;5064369;28;45332;-70
2023/05/21 10:50:37;;;;;;;6.97;5.63;;;22.30;53.80;;;;;;5072331;28;45451;-70
2023/05/21 10:53:08;;;;;;;8.35;5.70;;;22.40;53.70;;;;;;5067314;28;45352;-70
2023/05/21 10:55:43;;;;;;;6.82;6.22;;;22.50;53.70;;;;;;5066709;28;46558;-70
2023/05/21 10:58:34;;;;;;;6.28;5.68;;;22.50;53.70;;;;;;5067335;28;45315;-70
2023/05/21 11:01:01;;;;;;;7.28;6.50;;;22.60;53.60;;;;;;5067137;28;45346;-70
2023/05/21 11:03:28;;;;;;;6.43;5.80;;;22.60;53.60;;;;;;5067569;28;45291;-70
2023/05/21 11:05:56;;;;;;;5.90;5.30;;;22.60;53.50;;;;;;5066857;28;47293;-70
2023/05/21 11:08:23;;;;;;;6.20;5.60;;;22.70;53.80;;;;;;5067133;28;45387;-70
2023/05/21 11:10:54;;;;;;;7.82;5.88;;;22.80;53.60;;;;;;5067323;28;45431;-70
2023/05/21 11:13:20;;;;;;;6.13;5.55;;;22.80;53.40;;;;;;5067337;28;45593;-70
2023/05/21 11:16:07;;;;;;;6.53;5.93;;;22.80;53.40;;;;;;5066827;28;46361;-70
2023/05/21 11:18:59;;;;;;;6.35;5.75;;;22.90;53.40;;;;;;5067138;28;45381;-70
2023/05/21 11:21:29;;;;;;;6.00;5.40;;;23.00;53.40;;;;;;5067244;28;45331;-71
2023/05/21 11:23:59;;;;;;;6.80;5.78;;;23.10;53.30;;;;;;5051083;28;45412;-70
2023/05/21 11:26:27;;;;;;;6.72;6.00;;;23.10;53.20;;;;;;5066721;28;45355;-70
2023/05/21 11:29:06;;;;;;;5.63;5.10;;;23.20;53.30;;;;;;5066885;28;45455;-70
2023/05/21 11:31:36;;;;;;;6.13;5.53;;;23.20;53.20;;;;;;5066901;28;45291;-70
2023/05/21 11:34:14;;;;;;;7.43;6.70;;;23.30;53.10;;;;;;5067102;28;45415;-70
2023/05/21 11:36:44;;;;;;;6.18;5.57;;;23.40;53.70;;;;;;5066738;28;45363;-71
2023/05/21 11:39:11;;;;;;;6.10;5.53;;;23.40;53.10;;;;;;5080013;28;45334;-70
2023/05/21 11:41:53;;;;;;;6.53;5.93;;;23.50;53.20;;;;;;5068840;27;45387;-70
2023/05/21 11:44:22;;;;;;;6.35;5.70;;;23.60;53.10;;;;;;5066785;28;45494;-70
2023/05/21 11:46:48;;;;;;;7.88;6.07;;;23.60;53.00;;;;;;5066115;28;45503;-70
2023/05/21 11:49:15;;;;;;;6.40;5.80;;;23.70;53.00;;;;;;5066508;28;45322;-70
2023/05/21 11:51:44;;;;;;;6.40;5.80;;;23.70;53.50;;;;;;5066654;28;45456;-70
2023/05/21 11:54:10;;;;;;;6.60;6.00;;;23.80;52.90;;;;;;5066907;28;45351;-70
2023/05/21 11:56:40;;;;;;;6.90;6.20;;;23.80;52.80;;;;;;5066361;28;45751;-70
2023/05/21 11:59:14;;;;;;;6.40;5.82;;;23.90;52.80;;;;;;5066708;28;45332;-71
2023/05/21 12:01:42;;;;;;;7.53;6.53;;;24.00;52.80;;;;;;5066255;28;45321;-70
2023/05/21 12:04:10;;;;;;;6.75;6.05;;;24.00;52.70;;;;;;5066817;28;45535;-70
2023/05/21 12:06:37;;;;;;;6.57;5.90;;;24.10;52.70;;;;;;5065810;28;45443;-70
2023/05/21 12:09:06;;;;;;;6.60;5.85;;;24.10;52.70;;;;;;5066300;28;45427;-70
2023/05/21 12:11:33;;;;;;;6.78;6.07;;;24.20;52.60;;;;;;5066334;28;45273;-70
2023/05/21 12:14:00;;;;;;;6.38;5.80;;;24.20;52.50;;;;;;5066460;28;45400;-70
2023/05/21 12:16:27;;;;;;;7.00;6.40;;;24.30;52.50;;;;;;5065989;28;45640;-70
2023/05/21 12:18:54;;;;;;;7.30;6.57;;;24.40;52.50;;;;;;5066161;28;45446;-70
2023/05/21 12:21:21;;;;;;;7.07;6.22;;;24.50;52.50;;;;;;5066202;28;45375;-70
2023/05/21 12:23:47;;;;;;;6.22;5.63;;;24.50;52.40;;;;;;5066230;28;45326;-70
2023/05/21 12:26:16;;;;;;;6.53;5.93;;;24.60;52.40;;;;;;5065694;28;46451;-70
2023/05/21 12:28:43;;;;;;;7.25;6.55;;;24.60;52.90;;;;;;5066096;28;45447;-70
2023/05/21 12:31:14;;;;;;;7.07;6.38;;;24.70;52.30;;;;;;5066265;28;45312;-71
2023/05/21 12:33:44;;;;;;;7.57;5.97;;;24.70;51.90;;;;;;5066280;28;45384;-70
2023/05/21 12:36:11;;;;;;;9.27;5.85;;;24.80;52.10;;;;;;5065645;28;46625;-71
2023/05/21 12:38:37;;;;;;;6.97;6.07;;;24.80;52.20;;;;;;5074357;28;45486;-71
2023/05/21 12:41:05;;;;;;;7.30;6.15;;;24.80;53.40;;;;;;5072648;27;45224;-71
2023/05/21 12:43:33;;;;;;;8.05;6.20;;;24.80;53.20;;;;;;5065301;28;45261;-72
2023/05/21 12:46:00;;;;;;;6.95;6.25;;;24.80;52.90;;;;;;5068654;28;45564;-72
2023/05/21 12:48:27;;;;;;;8.77;6.60;;;24.70;52.10;;;;;;5065999;28;45376;-70
2023/05/21 12:50:54;;;;;;;7.00;6.30;;;24.70;52.60;;;;;;5067887;28;45379;-71